createdAt,value
2018-11-12T00:01:39.816Z,11.74
2018-11-12T00:04:08.966Z,11.71
2018-11-12T00:06:38.297Z,11.60
2018-11-12T00:09:10.961Z,11.51
2018-11-12T00:11:40.620Z,11.54
2018-11-12T00:14:10.225Z,11.55
2018-11-12T00:16:39.696Z,11.52
2018-11-12T00:19:09.329Z,11.54
2018-11-12T00:21:38.507Z,11.62
2018-11-12T00:24:10.809Z,11.77
2018-11-12T00:26:39.959Z,11.74
2018-11-12T00:29:09.244Z,11.75
2018-11-12T00:31:38.524Z,11.66
2018-11-12T00:34:07.870Z,11.61
2018-11-12T00:36:37.257Z,11.83
2018-11-12T00:39:12.964Z,11.77
2018-11-12T00:41:42.672Z,11.60
2018-11-12T00:44:11.895Z,11.60
2018-11-12T00:46:41.081Z,11.42
2018-11-12T00:49:10.428Z,11.30
2018-11-12T00:51:40.123Z,11.15
2018-11-12T00:54:12.224Z,11.03
2018-11-12T00:56:41.463Z,10.87
2018-11-12T00:59:10.823Z,10.84
2018-11-12T01:01:40.234Z,11.22
2018-11-12T01:04:09.580Z,10.95
2018-11-12T01:06:40.232Z,10.82
2018-11-12T01:09:12.348Z,10.59
2018-11-12T01:11:41.925Z,10.49
2018-11-12T01:14:11.191Z,10.29
2018-11-12T01:16:40.517Z,10.06
2018-11-12T01:19:09.761Z,10.27
2018-11-12T01:21:41.800Z,10.36
2018-11-12T01:24:11.663Z,9.92
2018-11-12T01:26:40.953Z,9.83
2018-11-12T01:29:10.258Z,9.70
2018-11-12T01:31:39.590Z,9.64
2018-11-12T01:34:08.811Z,9.81
2018-11-12T01:36:41.105Z,9.71
2018-11-12T01:39:11.950Z,9.60
2018-11-12T01:41:42.045Z,9.63
2018-11-12T01:44:12.102Z,9.62
2018-11-12T01:46:41.393Z,9.46
2018-11-12T01:49:12.992Z,9.84
2018-11-12T01:51:44.301Z,9.75
2018-11-12T01:54:13.737Z,9.75
2018-11-12T01:56:44.138Z,9.68
2018-11-12T01:59:15.200Z,9.50
2018-11-12T02:01:44.401Z,9.38
2018-11-12T02:04:13.691Z,9.58
2018-11-12T02:06:42.857Z,9.48
2018-11-12T02:09:13.706Z,9.35
2018-11-12T02:11:47.355Z,9.33
2018-11-12T02:14:16.944Z,9.28
2018-11-12T02:16:46.111Z,9.17
2018-11-12T02:19:15.404Z,8.95
2018-11-12T02:21:44.666Z,8.90
2018-11-12T02:24:13.910Z,8.91
2018-11-12T02:26:43.868Z,9.08
2018-11-12T02:29:14.912Z,9.20
2018-11-12T02:31:44.123Z,9.14
2018-11-12T02:34:13.231Z,9.01
2018-11-12T02:36:42.226Z,9.04
2018-11-12T02:39:11.769Z,8.96
2018-11-12T02:41:43.669Z,9.00
2018-11-12T02:44:13.287Z,9.18
2018-11-12T02:46:42.379Z,9.40
2018-11-12T02:49:11.570Z,9.44
2018-11-12T02:51:40.832Z,9.38
2018-11-12T02:54:09.965Z,9.35
2018-11-12T02:56:39.432Z,9.45
2018-11-12T02:59:08.922Z,9.61
2018-11-12T03:01:41.544Z,9.59
2018-11-12T03:04:10.343Z,9.65
2018-11-12T03:06:39.198Z,9.63
2018-11-12T03:09:11.143Z,9.63
2018-11-12T03:11:41.197Z,9.59
2018-11-12T03:14:12.320Z,9.75
2018-11-12T03:16:41.492Z,9.86
2018-11-12T03:19:10.309Z,9.92
2018-11-12T03:21:41.192Z,9.89
2018-11-12T03:24:10.534Z,9.92
2018-11-12T03:26:41.026Z,9.89
2018-11-12T03:29:12.942Z,9.81
2018-11-12T03:31:42.193Z,9.83
2018-11-12T03:34:11.481Z,9.77
2018-11-12T03:36:40.693Z,9.43
2018-11-12T03:39:11.749Z,9.25
2018-11-12T03:41:44.394Z,9.15
2018-11-12T03:44:13.684Z,9.04
2018-11-12T03:46:42.798Z,9.24
2018-11-12T03:49:12.122Z,9.20
2018-11-12T03:51:41.956Z,9.26
2018-11-12T03:54:12.351Z,9.25
2018-11-12T03:56:44.767Z,8.92
2018-11-12T03:59:13.996Z,8.96
2018-11-12T04:01:43.863Z,8.84
2018-11-12T04:04:14.777Z,8.86
2018-11-12T04:06:46.868Z,8.90
2018-11-12T04:09:16.108Z,8.93
2018-11-12T04:11:45.775Z,8.98
2018-11-12T04:14:15.093Z,9.13
2018-11-12T04:16:44.996Z,9.25
2018-11-12T04:19:15.870Z,9.30
2018-11-12T04:21:45.067Z,9.29
2018-11-12T04:24:14.262Z,9.32
2018-11-12T04:26:43.276Z,9.42
2018-11-12T04:29:12.493Z,9.54
2018-11-12T04:31:43.558Z,9.46
2018-11-12T04:34:13.297Z,9.29
2018-11-12T04:36:42.399Z,9.14
2018-11-12T04:39:11.749Z,8.89
2018-11-12T04:41:41.045Z,8.99
2018-11-12T04:44:10.302Z,8.74
2018-11-12T04:46:42.196Z,8.58
2018-11-12T04:49:14.510Z,8.44
2018-11-12T04:51:43.627Z,8.61
2018-11-12T04:54:12.829Z,8.58
2018-11-12T04:56:42.460Z,8.67
2018-11-12T04:59:11.699Z,8.80
2018-11-12T05:01:43.822Z,8.81
2018-11-12T05:04:13.191Z,8.56
2018-11-12T05:06:42.400Z,8.56
2018-11-12T05:09:11.956Z,8.47
2018-11-12T05:11:41.874Z,8.45
2018-11-12T05:14:11.119Z,8.35
2018-11-12T05:16:40.275Z,8.33
2018-11-12T05:19:09.518Z,8.65
2018-11-12T05:21:38.597Z,8.59
2018-11-12T05:24:11.202Z,8.30
2018-11-12T05:26:40.376Z,8.52
2018-11-12T05:29:09.621Z,8.49
2018-11-12T05:31:38.774Z,8.25
2018-11-12T05:34:09.050Z,8.52
2018-11-12T05:36:39.846Z,8.43
2018-11-12T05:39:13.591Z,8.12
2018-11-12T05:41:42.835Z,8.22
2018-11-12T05:44:12.034Z,8.24
2018-11-12T05:46:42.165Z,8.01
2018-11-12T05:49:13.298Z,8.09
2018-11-12T05:51:43.296Z,7.96
2018-11-12T05:54:12.762Z,7.77
2018-11-12T05:56:42.022Z,7.84
2018-11-12T05:59:11.224Z,7.97
2018-11-12T06:01:40.982Z,7.97
2018-11-12T06:04:10.582Z,8.05
2018-11-12T06:06:39.841Z,8.11
2018-11-12T06:09:13.253Z,8.10
2018-11-12T06:11:45.188Z,7.95
2018-11-12T06:14:14.382Z,8.00
2018-11-12T06:16:43.285Z,8.20
2018-11-12T06:19:12.583Z,8.26
2018-11-12T06:21:42.163Z,8.17
2018-11-12T06:24:12.899Z,7.95
2018-11-12T06:26:44.347Z,8.04
2018-11-12T06:29:13.576Z,8.07
2018-11-12T06:31:42.784Z,7.79
2018-11-12T06:34:12.109Z,7.85
2018-11-12T06:36:41.729Z,7.79
2018-11-12T06:39:13.316Z,7.88
2018-11-12T06:41:43.447Z,8.26
2018-11-12T06:44:12.735Z,8.30
2018-11-12T06:46:42.118Z,8.03
2018-11-12T06:49:11.250Z,7.93
2018-11-12T06:51:41.109Z,8.15
2018-11-12T06:54:13.475Z,8.15
2018-11-12T06:56:42.328Z,8.08
2018-11-12T06:59:11.191Z,8.11
2018-11-12T07:01:40.035Z,8.17
2018-11-12T07:04:08.882Z,8.26
2018-11-12T07:06:38.080Z,8.36
2018-11-12T07:09:14.255Z,8.53
2018-11-12T07:11:43.448Z,8.78
2018-11-12T07:14:12.690Z,8.95
2018-11-12T07:16:41.986Z,9.14
2018-11-12T07:19:11.236Z,9.38
2018-11-12T07:21:40.750Z,9.29
2018-11-12T07:24:12.399Z,9.24
2018-11-12T07:26:41.807Z,9.22
2018-11-12T07:29:13.961Z,9.18
2018-11-12T07:31:43.206Z,9.23
2018-11-12T07:34:13.583Z,9.28
2018-11-12T07:36:45.848Z,9.33
2018-11-12T07:39:15.106Z,9.63
2018-11-12T07:41:44.404Z,9.74
2018-11-12T07:44:13.663Z,9.73
2018-11-12T07:46:43.104Z,9.86
2018-11-12T07:49:13.387Z,10.12
2018-11-12T07:51:42.937Z,10.17
2018-11-12T07:54:12.920Z,10.11
2018-11-12T07:56:42.229Z,10.41
2018-11-12T07:59:11.554Z,10.51
2018-11-12T08:01:40.859Z,10.70
2018-11-12T08:04:10.013Z,10.94
2018-11-12T08:06:39.670Z,11.04
2018-11-12T08:09:11.972Z,11.08
2018-11-12T08:11:41.491Z,11.09
2018-11-12T08:14:10.729Z,11.31
2018-11-12T08:16:40.040Z,11.45
2018-11-12T08:19:09.342Z,11.68
2018-11-12T08:21:40.708Z,11.84
2018-11-12T08:24:11.522Z,12.01
2018-11-12T08:26:40.554Z,12.22
2018-11-12T08:29:09.811Z,12.42
2018-11-12T08:31:39.109Z,12.62
2018-11-12T08:34:08.266Z,12.77
2018-11-12T08:36:38.878Z,12.74
2018-11-12T08:39:10.409Z,13.05
2018-11-12T08:41:39.543Z,13.19
2018-11-12T08:44:08.891Z,13.40
2018-11-12T08:46:38.043Z,13.58
2018-11-12T08:49:07.521Z,13.75
2018-11-12T08:51:39.813Z,13.94
2018-11-12T08:54:09.211Z,14.14
2018-11-12T08:56:38.563Z,14.41
2018-11-12T08:59:07.896Z,14.73
2018-11-12T09:01:37.171Z,14.89
2018-11-12T09:04:06.677Z,15.19
2018-11-12T09:06:39.350Z,15.64
2018-11-12T09:09:11.807Z,16.11
2018-11-12T09:11:41.236Z,16.48
2018-11-12T09:14:10.727Z,16.70
2018-11-12T09:16:40.234Z,16.72
2018-11-12T09:19:11.913Z,16.86
2018-11-12T09:21:42.830Z,17.03
2018-11-12T09:24:12.243Z,17.19
2018-11-12T09:26:42.233Z,17.39
2018-11-12T09:29:11.538Z,17.60
2018-11-12T09:31:40.933Z,17.66
2018-11-12T09:34:10.206Z,17.79
2018-11-12T09:36:41.610Z,17.93
2018-11-12T09:39:14.695Z,18.02
2018-11-12T09:41:44.178Z,18.11
2018-11-12T09:44:13.478Z,18.10
2018-11-12T09:46:42.653Z,18.10
2018-11-12T09:49:11.964Z,18.12
2018-11-12T09:51:42.441Z,17.99
2018-11-12T09:54:13.185Z,18.20
2018-11-12T09:56:44.256Z,18.26
2018-11-12T09:59:13.587Z,18.44
2018-11-12T10:01:43.721Z,18.84
2018-11-12T10:04:13.250Z,19.02
2018-11-12T10:06:42.822Z,18.73
2018-11-12T10:09:17.645Z,18.87
2018-11-12T10:11:48.584Z,18.88
2018-11-12T10:14:17.631Z,19.00
2018-11-12T10:16:50.288Z,19.37
2018-11-12T10:19:15.676Z,19.33
2018-11-12T10:21:44.549Z,19.01
2018-11-12T10:24:13.377Z,19.21
2018-11-12T10:26:43.728Z,18.99
2018-11-12T10:29:15.152Z,19.16
2018-11-12T10:31:44.424Z,19.62
2018-11-12T10:34:13.703Z,19.99
2018-11-12T10:36:42.651Z,20.46
2018-11-12T10:39:13.604Z,20.35
2018-11-12T10:41:45.126Z,20.23
2018-11-12T10:44:14.249Z,19.87
2018-11-12T10:46:43.505Z,19.77
2018-11-12T10:49:12.806Z,19.98
2018-11-12T10:51:42.203Z,19.86
2018-11-12T10:54:11.534Z,20.07
2018-11-12T10:56:41.626Z,20.10
2018-11-12T10:59:12.963Z,20.26
2018-11-12T11:01:47.467Z,20.58
2018-11-12T11:04:23.117Z,21.09
2018-11-12T11:06:52.518Z,20.42
2018-11-12T11:09:21.535Z,20.52
2018-11-12T11:11:50.937Z,20.13
2018-11-12T11:14:20.131Z,19.99
2018-11-12T11:16:49.471Z,19.71
2018-11-12T11:19:21.084Z,19.35
2018-11-12T11:21:50.707Z,19.41
2018-11-12T11:24:22.237Z,19.47
2018-11-12T11:26:52.364Z,19.62
2018-11-12T11:29:21.211Z,20.13
2018-11-12T11:31:50.527Z,19.99
2018-11-12T11:34:19.932Z,19.93
2018-11-12T11:36:49.262Z,19.96
2018-11-12T11:39:21.476Z,19.85
2018-11-12T11:41:50.701Z,19.86
2018-11-12T11:44:20.034Z,20.10
2018-11-12T11:46:50.064Z,20.42
2018-11-12T11:49:21.266Z,20.19
2018-11-12T11:51:50.609Z,19.89
2018-11-12T11:54:19.855Z,20.02
2018-11-12T11:56:49.221Z,20.01
2018-11-12T11:59:18.249Z,20.22
2018-11-12T12:01:47.792Z,20.36
2018-11-12T12:04:19.195Z,20.28
2018-11-12T12:06:48.802Z,20.17
2018-11-12T12:09:17.987Z,19.80
2018-11-12T12:11:47.316Z,19.71
2018-11-12T12:14:16.595Z,19.50
2018-11-12T12:16:45.903Z,19.26
2018-11-12T12:19:17.491Z,19.40
2018-11-12T12:21:47.828Z,19.17
2018-11-12T12:24:17.976Z,19.00
2018-11-12T12:26:47.870Z,18.94
2018-11-12T12:29:18.473Z,18.86
2018-11-12T12:31:47.960Z,18.68
2018-11-12T12:34:17.270Z,18.48
2018-11-12T12:36:46.756Z,18.39
2018-11-12T12:39:15.905Z,18.38
2018-11-12T12:41:45.212Z,18.25
2018-11-12T12:44:15.214Z,18.26
2018-11-12T12:46:44.542Z,18.17
2018-11-12T12:49:13.794Z,18.22
2018-11-12T12:51:43.067Z,18.38
2018-11-12T12:54:12.311Z,18.37
2018-11-12T12:56:41.574Z,18.38
2018-11-12T12:59:11.031Z,18.35
2018-11-12T13:01:43.384Z,18.43
2018-11-12T13:04:12.409Z,18.54
2018-11-12T13:06:41.742Z,18.68
2018-11-12T13:09:11.205Z,18.80
2018-11-12T13:11:42.436Z,18.82
2018-11-12T13:14:12.605Z,18.72
2018-11-12T13:16:41.599Z,18.65
2018-11-12T13:19:10.920Z,18.55
2018-11-12T13:21:40.212Z,18.46
2018-11-12T13:24:09.552Z,18.47
2018-11-12T13:26:39.809Z,18.39
2018-11-12T13:29:12.163Z,18.28
2018-11-12T13:31:42.736Z,18.30
2018-11-12T13:34:12.052Z,18.29
2018-11-12T13:36:41.531Z,18.31
2018-11-12T13:39:12.517Z,18.46
2018-11-12T13:41:42.028Z,18.50
2018-11-12T13:44:13.259Z,18.54
2018-11-12T13:46:48.347Z,18.42
2018-11-12T13:49:17.473Z,18.39
2018-11-12T13:51:46.661Z,18.37
2018-11-12T13:54:16.021Z,18.35
2018-11-12T13:56:47.366Z,18.42
2018-11-12T13:59:17.524Z,18.57
2018-11-12T14:01:46.637Z,18.57
2018-11-12T14:04:15.947Z,18.70
2018-11-12T14:06:45.356Z,18.91
2018-11-12T14:09:17.525Z,19.33
2018-11-12T14:11:47.943Z,19.53
2018-11-12T14:14:17.265Z,19.55
2018-11-12T14:16:46.411Z,19.79
2018-11-12T14:19:15.615Z,19.94
2018-11-12T14:21:45.212Z,19.98
2018-11-12T14:24:14.259Z,19.89
2018-11-12T14:26:43.170Z,20.01
2018-11-12T14:29:15.032Z,20.11
2018-11-12T14:31:47.808Z,20.45
2018-11-12T14:34:17.034Z,21.11
2018-11-12T14:36:46.298Z,21.80
2018-11-12T14:39:15.550Z,22.47
2018-11-12T14:41:44.745Z,22.20
2018-11-12T14:44:14.088Z,21.66
2018-11-12T14:46:43.139Z,21.02
2018-11-12T14:49:14.253Z,21.03
2018-11-12T14:51:45.017Z,21.03
2018-11-12T14:54:14.364Z,20.54
2018-11-12T14:56:43.320Z,19.68
2018-11-12T14:59:14.306Z,18.93
2018-11-12T15:01:43.461Z,18.34
2018-11-12T15:04:12.741Z,18.07
2018-11-12T15:06:42.076Z,17.82
2018-11-12T15:09:13.134Z,17.66
2018-11-12T15:11:44.380Z,17.48
2018-11-12T15:14:13.526Z,17.22
2018-11-12T15:16:42.538Z,17.03
2018-11-12T15:19:11.832Z,16.92
2018-11-12T15:21:41.015Z,16.63
2018-11-12T15:24:11.738Z,16.31
2018-11-12T15:26:44.305Z,16.20
2018-11-12T15:29:14.413Z,16.16
2018-11-12T15:31:43.657Z,15.96
2018-11-12T15:34:12.938Z,15.83
2018-11-12T15:36:42.238Z,15.61
2018-11-12T15:39:12.029Z,15.34
2018-11-12T15:41:44.343Z,15.17
2018-11-12T15:44:13.673Z,15.15
2018-11-12T15:46:42.833Z,15.12
2018-11-12T15:49:12.132Z,14.85
2018-11-12T15:51:41.526Z,14.64
2018-11-12T15:54:11.889Z,14.53
2018-11-12T15:56:42.470Z,14.57
2018-11-12T15:59:11.679Z,14.43
2018-11-12T16:01:40.915Z,14.67
2018-11-12T16:04:10.107Z,14.41
2018-11-12T16:06:39.486Z,14.19
2018-11-12T16:09:13.089Z,13.96
2018-11-12T16:11:44.534Z,13.92
2018-11-12T16:14:13.943Z,13.92
2018-11-12T16:16:42.939Z,13.96
2018-11-12T16:19:12.177Z,13.95
2018-11-12T16:21:42.309Z,13.90
2018-11-12T16:24:14.823Z,14.00
2018-11-12T16:26:44.256Z,13.82
2018-11-12T16:29:13.484Z,13.71
2018-11-12T16:31:42.721Z,13.56
2018-11-12T16:34:12.058Z,13.50
2018-11-12T16:36:41.259Z,13.61
2018-11-12T16:39:13.035Z,13.66
2018-11-12T16:41:42.566Z,13.60
2018-11-12T16:44:11.678Z,13.55
2018-11-12T16:46:40.971Z,13.30
2018-11-12T16:49:10.076Z,13.15
2018-11-12T16:51:39.496Z,13.28
2018-11-12T16:54:11.502Z,13.16
2018-11-12T16:56:40.845Z,12.94
2018-11-12T16:59:10.048Z,13.09
2018-11-12T17:01:39.323Z,12.98
2018-11-12T17:04:08.435Z,12.85
2018-11-12T17:06:37.774Z,12.63
2018-11-12T17:09:10.945Z,12.49
2018-11-12T17:11:40.212Z,12.88
2018-11-12T17:14:09.685Z,12.66
2018-11-12T17:16:39.283Z,12.50
2018-11-12T17:19:11.067Z,12.58
2018-11-12T17:21:40.437Z,12.52
2018-11-12T17:24:09.682Z,12.45
2018-11-12T17:26:38.996Z,12.22
2018-11-12T17:29:08.327Z,12.37
2018-11-12T17:31:38.529Z,12.21
2018-11-12T17:34:09.027Z,12.33
2018-11-12T17:36:38.425Z,12.29
2018-11-12T17:39:08.503Z,12.34
2018-11-12T17:41:37.833Z,12.30
2018-11-12T17:44:07.579Z,12.11
2018-11-12T17:46:36.881Z,12.15
2018-11-12T17:49:07.078Z,12.26
2018-11-12T17:51:39.119Z,12.10
2018-11-12T17:54:08.455Z,12.10
2018-11-12T17:56:37.652Z,12.14
2018-11-12T17:59:07.414Z,12.18
2018-11-12T18:01:37.178Z,12.26
2018-11-12T18:04:06.508Z,12.31
2018-11-12T18:06:35.786Z,12.27
2018-11-12T18:09:06.323Z,12.13
2018-11-12T18:11:35.616Z,12.23
2018-11-12T18:14:05.235Z,12.36
2018-11-12T18:16:34.450Z,12.30
2018-11-12T18:19:03.865Z,12.14
2018-11-12T18:21:33.212Z,11.97
2018-11-12T18:24:02.458Z,11.95
2018-11-12T18:26:31.715Z,11.91
2018-11-12T18:29:01.028Z,11.96
2018-11-12T18:31:30.881Z,12.13
2018-11-12T18:34:00.028Z,12.14
2018-11-12T18:36:30.376Z,12.08
2018-11-12T18:39:01.220Z,12.04
2018-11-12T18:41:34.265Z,12.05
2018-11-12T18:44:03.569Z,12.13
2018-11-12T18:46:32.860Z,12.20
2018-11-12T18:49:03.897Z,12.30
2018-11-12T18:51:33.820Z,12.40
2018-11-12T18:54:04.937Z,12.38
2018-11-12T18:56:34.192Z,12.34
2018-11-12T18:59:03.515Z,12.39
2018-11-12T19:01:32.754Z,12.24
2018-11-12T19:04:02.046Z,12.36
2018-11-12T19:06:32.243Z,12.44
2018-11-12T19:09:05.494Z,12.46
2018-11-12T19:11:36.153Z,12.69
2018-11-12T19:14:05.693Z,12.78
2018-11-12T19:16:34.957Z,12.88
2018-11-12T19:19:05.066Z,12.84
2018-11-12T19:21:34.733Z,12.96
2018-11-12T19:24:04.162Z,13.07
2018-11-12T19:26:33.482Z,13.19
2018-11-12T19:29:02.741Z,13.22
2018-11-12T19:31:32.550Z,13.30
2018-11-12T19:34:03.281Z,13.02
2018-11-12T19:36:33.046Z,12.93
2018-11-12T19:39:02.578Z,12.86
2018-11-12T19:41:31.692Z,12.92
2018-11-12T19:44:00.960Z,12.81
2018-11-12T19:46:44.834Z,12.90
2018-11-12T19:49:14.762Z,12.86
2018-11-12T19:51:56.480Z,12.81
2018-11-12T19:54:25.708Z,12.93
2018-11-12T19:56:54.960Z,12.98
2018-11-12T19:59:24.248Z,12.86
2018-11-12T20:01:54.718Z,12.64
2018-11-12T20:04:24.306Z,12.54
2018-11-12T20:06:53.523Z,12.68
2018-11-12T20:09:24.012Z,12.72
2018-11-12T20:11:54.580Z,12.47
2018-11-12T20:14:23.771Z,12.57
2018-11-12T20:16:53.147Z,12.53
2018-11-12T20:19:22.483Z,12.68
2018-11-12T20:21:51.887Z,12.45
2018-11-12T20:24:22.638Z,12.35
2018-11-12T20:26:52.370Z,12.40
2018-11-12T20:29:21.629Z,12.34
2018-11-12T20:31:50.809Z,12.14
2018-11-12T20:34:20.102Z,12.01
2018-11-12T20:36:49.300Z,11.93
2018-11-12T20:39:18.638Z,12.20
2018-11-12T20:41:48.227Z,12.24
2018-11-12T20:44:19.203Z,12.10
2018-11-12T20:46:48.731Z,12.11
2018-11-12T20:49:18.074Z,11.91
2018-11-12T20:51:47.341Z,11.74
2018-11-12T20:54:16.572Z,11.69
2018-11-12T20:56:46.004Z,11.58
2018-11-12T20:59:17.150Z,11.78
2018-11-12T21:01:46.764Z,11.88
2018-11-12T21:04:16.002Z,12.01
2018-11-12T21:06:45.325Z,12.03
2018-11-12T21:09:15.035Z,11.92
2018-11-12T21:11:44.234Z,11.81
2018-11-12T21:14:13.943Z,11.76
2018-11-12T21:16:44.894Z,11.86
2018-11-12T21:19:14.429Z,11.82
2018-11-12T21:21:43.534Z,11.84
2018-11-12T21:24:12.844Z,12.06
2018-11-12T21:26:42.082Z,12.01
2018-11-12T21:29:12.397Z,11.90
2018-11-12T21:31:43.264Z,11.83
2018-11-12T21:34:12.649Z,11.99
2018-11-12T21:36:42.050Z,12.07
2018-11-12T21:39:14.453Z,12.07
2018-11-12T21:41:43.737Z,12.18
2018-11-12T21:44:12.984Z,12.32
2018-11-12T21:46:42.308Z,12.39
2018-11-12T21:49:11.576Z,12.46
2018-11-12T21:51:42.942Z,12.37
2018-11-12T21:54:12.139Z,12.36
2018-11-12T21:56:41.457Z,12.35
2018-11-12T21:59:10.790Z,12.26
2018-11-12T22:01:41.983Z,12.27
2018-11-12T22:04:12.038Z,12.29
2018-11-12T22:06:41.487Z,12.51
2018-11-12T22:09:12.323Z,12.57
2018-11-12T22:11:41.635Z,12.60
2018-11-12T22:14:10.878Z,12.59
2018-11-12T22:16:40.786Z,12.68
2018-11-12T22:19:10.027Z,12.67
2018-11-12T22:21:40.008Z,12.60
2018-11-12T22:24:09.294Z,12.53
2018-11-12T22:26:39.283Z,12.43
2018-11-12T22:29:09.367Z,12.52
2018-11-12T22:31:39.032Z,12.38
2018-11-12T22:34:08.372Z,12.36
2018-11-12T22:36:37.519Z,12.26
2018-11-12T22:39:10.925Z,12.37
2018-11-12T22:41:40.356Z,12.60
2018-11-12T22:44:10.750Z,12.56
2018-11-12T22:46:40.071Z,12.64
2018-11-12T22:49:09.468Z,12.53
2018-11-12T22:51:39.621Z,12.36
2018-11-12T22:54:08.943Z,12.58
2018-11-12T22:56:38.234Z,12.52
2018-11-12T22:59:07.481Z,12.70
2018-11-12T23:05:20.067Z,12.51
2018-11-12T23:07:49.671Z,12.38
2018-11-12T23:10:19.263Z,12.20
2018-11-12T23:12:48.561Z,12.33
2018-11-12T23:15:19.670Z,12.43
2018-11-12T23:17:50.072Z,12.47
2018-11-12T23:20:23.591Z,12.44
2018-11-12T23:22:53.136Z,12.33
2018-11-12T23:25:22.320Z,12.21
2018-11-12T23:27:52.862Z,12.21
2018-11-12T23:30:24.521Z,12.17
2018-11-12T23:32:53.809Z,12.15
2018-11-12T23:35:24.240Z,12.34
2018-11-12T23:37:53.117Z,12.36
2018-11-12T23:40:23.086Z,12.28
2018-11-12T23:42:54.463Z,12.22
2018-11-12T23:45:23.730Z,12.17
2018-11-12T23:47:52.836Z,12.18
2018-11-12T23:50:22.899Z,12.21
2018-11-12T23:52:53.399Z,12.47
2018-11-12T23:55:24.378Z,12.46
2018-11-12T23:57:56.183Z,12.37
